sensor_id;sensor_type;location;lat;lon;timestamp;pressure;altitude;pressure_sealevel;temperature;humidity
54453;BME280;40363;52.270;10.546;2023-01-31T00:02:12;77763.81;;;-147.06;87.21
54453;BME280;40363;52.270;10.546;2023-01-31T00:04:38;77765.88;;;-147.06;86.93
54453;BME280;40363;52.270;10.546;2023-01-31T00:07:05;77765.88;;;-147.06;86.50
54453;BME280;40363;52.270;10.546;2023-01-31T00:09:32;77780.28;;;-147.06;86.90
54453;BME280;40363;52.270;10.546;2023-01-31T00:11:58;77784.38;;;-147.06;87.06
54453;BME280;40363;52.270;10.546;2023-01-31T00:14:26;77774.09;;;-147.06;87.00
54453;BME280;40363;52.270;10.546;2023-01-31T00:16:53;77772.06;;;-147.06;87.31
54453;BME280;40363;52.270;10.546;2023-01-31T00:19:20;77782.34;;;-147.06;87.77
54453;BME280;40363;52.270;10.546;2023-01-31T00:21:46;77774.09;;;-147.06;87.64
54453;BME280;40363;52.270;10.546;2023-01-31T00:24:13;77784.38;;;-147.06;88.87
54453;BME280;40363;52.270;10.546;2023-01-31T00:26:41;77798.78;;;-147.06;89.38
54453;BME280;40363;52.270;10.546;2023-01-31T00:29:08;77790.56;;;-147.06;89.81
54453;BME280;40363;52.270;10.546;2023-01-31T00:31:36;77792.63;;;-147.06;89.63
54453;BME280;40363;52.270;10.546;2023-01-31T00:34:03;77804.94;;;-147.06;89.94
54453;BME280;40363;52.270;10.546;2023-01-31T00:36:32;77807.00;;;-147.06;90.09
54453;BME280;40363;52.270;10.546;2023-01-31T00:39:01;77809.06;;;-147.06;90.18
54453;BME280;40363;52.270;10.546;2023-01-31T00:41:29;77817.28;;;-147.06;90.54
54453;BME280;40363;52.270;10.546;2023-01-31T00:43:56;77827.56;;;-147.06;90.64
54453;BME280;40363;52.270;10.546;2023-01-31T00:46:23;77817.28;;;-147.06;90.67
54453;BME280;40363;52.270;10.546;2023-01-31T00:48:51;77833.72;;;-147.06;90.41
54453;BME280;40363;52.270;10.546;2023-01-31T00:51:19;77823.44;;;-147.06;90.44
54453;BME280;40363;52.270;10.546;2023-01-31T00:53:46;77823.44;;;-147.06;90.72
54453;BME280;40363;52.270;10.546;2023-01-31T00:56:15;77829.63;;;-147.06;91.06
54453;BME280;40363;52.270;10.546;2023-01-31T00:58:42;77827.56;;;-147.06;91.10
54453;BME280;40363;52.270;10.546;2023-01-31T01:01:11;77844.00;;;-147.06;91.62
54453;BME280;40363;52.270;10.546;2023-01-31T01:03:38;77854.28;;;-147.06;91.80
54453;BME280;40363;52.270;10.546;2023-01-31T01:06:07;77854.28;;;-147.06;92.13
54453;BME280;40363;52.270;10.546;2023-01-31T01:08:35;77866.63;;;-147.06;92.09
54453;BME280;40363;52.270;10.546;2023-01-31T01:11:06;77844.00;;;-147.06;92.18
54453;BME280;40363;52.270;10.546;2023-01-31T01:13:34;77850.19;;;-147.06;92.41
54453;BME280;40363;52.270;10.546;2023-01-31T01:16:04;77831.69;;;-147.06;92.32
54453;BME280;40363;52.270;10.546;2023-01-31T01:18:31;77852.25;;;-147.06;92.68
54453;BME280;40363;52.270;10.546;2023-01-31T01:21:05;77850.19;;;-147.06;92.76
54453;BME280;40363;52.270;10.546;2023-01-31T01:23:33;77844.00;;;-147.06;92.88
54453;BME280;40363;52.270;10.546;2023-01-31T01:25:59;77846.06;;;-147.06;92.78
54453;BME280;40363;52.270;10.546;2023-01-31T01:28:26;77858.41;;;-147.06;92.86
54453;BME280;40363;52.270;10.546;2023-01-31T01:30:53;77864.56;;;-147.06;93.01
54453;BME280;40363;52.270;10.546;2023-01-31T01:33:19;77860.47;;;-147.06;93.05
54453;BME280;40363;52.270;10.546;2023-01-31T01:35:46;77852.25;;;-147.06;92.90
54453;BME280;40363;52.270;10.546;2023-01-31T01:38:13;77850.19;;;-147.06;92.78
54453;BME280;40363;52.270;10.546;2023-01-31T01:40:41;77839.91;;;-147.06;92.73
54453;BME280;40363;52.270;10.546;2023-01-31T01:43:09;77823.44;;;-147.06;91.96
54453;BME280;40363;52.270;10.546;2023-01-31T01:45:36;77831.69;;;-147.06;91.79
54453;BME280;40363;52.270;10.546;2023-01-31T01:48:05;77833.72;;;-147.06;91.67
54453;BME280;40363;52.270;10.546;2023-01-31T01:50:35;77823.44;;;-147.06;91.35
54453;BME280;40363;52.270;10.546;2023-01-31T01:53:08;77829.63;;;-147.06;91.32
54453;BME280;40363;52.270;10.546;2023-01-31T01:55:38;77829.63;;;-147.06;91.51
54453;BME280;40363;52.270;10.546;2023-01-31T01:58:12;77829.63;;;-147.06;91.16
54453;BME280;40363;52.270;10.546;2023-01-31T02:00:40;77831.69;;;-147.06;91.08
54453;BME280;40363;52.270;10.546;2023-01-31T02:03:07;77833.72;;;-147.06;91.71
54453;BME280;40363;52.270;10.546;2023-01-31T02:05:39;77809.06;;;-147.06;91.78
54453;BME280;40363;52.270;10.546;2023-01-31T02:08:07;77831.69;;;-147.06;92.14
54453;BME280;40363;52.270;10.546;2023-01-31T02:10:38;77846.06;;;-147.06;92.49
54453;BME280;40363;52.270;10.546;2023-01-31T02:13:10;77835.78;;;-147.06;92.71
54453;BME280;40363;52.270;10.546;2023-01-31T02:15:37;77833.72;;;-147.06;92.81
54453;BME280;40363;52.270;10.546;2023-01-31T02:18:04;77848.13;;;-147.06;92.74
54453;BME280;40363;52.270;10.546;2023-01-31T02:20:56;77862.50;;;-147.06;92.77
54453;BME280;40363;52.270;10.546;2023-01-31T02:23:58;77860.47;;;-147.06;92.78
54453;BME280;40363;52.270;10.546;2023-01-31T02:29:33;77844.00;;;-147.06;92.59
54453;BME280;40363;52.270;10.546;2023-01-31T02:32:42;77837.84;;;-147.06;92.52
54453;BME280;40363;52.270;10.546;2023-01-31T02:35:18;77841.97;;;-147.06;92.48
54453;BME280;40363;52.270;10.546;2023-01-31T02:37:57;77846.06;;;-147.06;92.91
54453;BME280;40363;52.270;10.546;2023-01-31T02:40:34;77848.13;;;-147.06;93.10
54453;BME280;40363;52.270;10.546;2023-01-31T02:43:10;77852.25;;;-147.06;93.46
54453;BME280;40363;52.270;10.546;2023-01-31T02:45:46;77862.50;;;-147.06;93.43
54453;BME280;40363;52.270;10.546;2023-01-31T02:48:23;77868.69;;;-147.06;93.61
54453;BME280;40363;52.270;10.546;2023-01-31T02:50:59;77868.69;;;-147.06;93.95
54453;BME280;40363;52.270;10.546;2023-01-31T02:53:31;77881.03;;;-147.06;93.92
54453;BME280;40363;52.270;10.546;2023-01-31T02:56:02;77883.06;;;-147.06;93.99
54453;BME280;40363;52.270;10.546;2023-01-31T02:58:45;77891.31;;;-147.06;94.05
54453;BME280;40363;52.270;10.546;2023-01-31T03:01:18;77899.53;;;-147.06;94.24
54453;BME280;40363;52.270;10.546;2023-01-31T03:03:49;77893.34;;;-147.06;94.22
54453;BME280;40363;52.270;10.546;2023-01-31T03:06:46;77905.69;;;-147.06;94.13
54453;BME280;40363;52.270;10.546;2023-01-31T03:09:23;77899.53;;;-147.06;94.02
54453;BME280;40363;52.270;10.546;2023-01-31T03:11:59;77905.69;;;-147.06;94.12
54453;BME280;40363;52.270;10.546;2023-01-31T03:14:33;77891.31;;;-147.06;94.07
54453;BME280;40363;52.270;10.546;2023-01-31T03:17:05;77895.41;;;-147.06;94.21
54453;BME280;40363;52.270;10.546;2023-01-31T03:19:58;77883.06;;;-147.06;94.17
54453;BME280;40363;52.270;10.546;2023-01-31T03:22:29;77893.34;;;-147.06;93.89
54453;BME280;40363;52.270;10.546;2023-01-31T03:24:57;77887.19;;;-147.06;94.17
54453;BME280;40363;52.270;10.546;2023-01-31T03:27:25;77891.31;;;-147.06;94.14
54453;BME280;40363;52.270;10.546;2023-01-31T03:29:57;77889.25;;;-147.06;94.59
54453;BME280;40363;52.270;10.546;2023-01-31T03:32:29;77895.41;;;-147.06;95.02
54453;BME280;40363;52.270;10.546;2023-01-31T03:34:58;77883.06;;;-147.06;95.32
54453;BME280;40363;52.270;10.546;2023-01-31T03:37:31;77887.19;;;-147.06;95.25
54453;BME280;40363;52.270;10.546;2023-01-31T03:43:25;77883.06;;;-147.06;95.45
54453;BME280;40363;52.270;10.546;2023-01-31T03:45:57;77891.31;;;-147.06;95.69
54453;BME280;40363;52.270;10.546;2023-01-31T03:48:32;77885.13;;;-147.06;95.59
54453;BME280;40363;52.270;10.546;2023-01-31T03:51:05;77887.19;;;-147.06;95.37
54453;BME280;40363;52.270;10.546;2023-01-31T03:53:36;77881.03;;;-147.06;95.96
54453;BME280;40363;52.270;10.546;2023-01-31T03:56:08;77878.97;;;-147.06;96.52
54453;BME280;40363;52.270;10.546;2023-01-31T03:58:41;77889.25;;;-147.06;97.05
54453;BME280;40363;52.270;10.546;2023-01-31T04:01:13;77891.31;;;-147.06;97.45
54453;BME280;40363;52.270;10.546;2023-01-31T04:03:43;77897.47;;;-147.06;97.64
54453;BME280;40363;52.270;10.546;2023-01-31T04:06:12;77895.41;;;-147.06;97.87
54453;BME280;40363;52.270;10.546;2023-01-31T04:08:39;77897.47;;;-147.06;97.95
54453;BME280;40363;52.270;10.546;2023-01-31T04:11:10;77889.25;;;-147.06;97.89
54453;BME280;40363;52.270;10.546;2023-01-31T04:13:38;77899.53;;;-147.06;98.12
54453;BME280;40363;52.270;10.546;2023-01-31T04:16:05;77897.47;;;-147.06;97.99
54453;BME280;40363;52.270;10.546;2023-01-31T04:18:32;77903.63;;;-147.06;97.88
54453;BME280;40363;52.270;10.546;2023-01-31T04:20:59;77905.69;;;-147.06;97.81
54453;BME280;40363;52.270;10.546;2023-01-31T04:23:27;77901.59;;;-147.06;97.94
54453;BME280;40363;52.270;10.546;2023-01-31T04:25:53;77918.03;;;-147.06;98.01
54453;BME280;40363;52.270;10.546;2023-01-31T04:28:20;77907.75;;;-147.06;97.84
54453;BME280;40363;52.270;10.546;2023-01-31T04:30:51;77907.75;;;-147.06;97.80
54453;BME280;40363;52.270;10.546;2023-01-31T04:33:18;77918.03;;;-147.06;97.81
54453;BME280;40363;52.270;10.546;2023-01-31T04:35:45;77915.97;;;-147.06;97.87
54453;BME280;40363;52.270;10.546;2023-01-31T04:38:11;77928.31;;;-147.06;97.67
54453;BME280;40363;52.270;10.546;2023-01-31T04:40:39;77918.03;;;-147.06;97.48
54453;BME280;40363;52.270;10.546;2023-01-31T04:43:06;77913.91;;;-147.06;97.16
54453;BME280;40363;52.270;10.546;2023-01-31T04:45:33;77901.59;;;-147.06;96.97
54453;BME280;40363;52.270;10.546;2023-01-31T04:47:59;77907.75;;;-147.06;96.92
54453;BME280;40363;52.270;10.546;2023-01-31T04:50:26;77899.53;;;-147.06;96.47
54453;BME280;40363;52.270;10.546;2023-01-31T04:52:53;77897.47;;;-147.06;95.95
54453;BME280;40363;52.270;10.546;2023-01-31T04:55:20;77893.34;;;-147.06;95.65
54453;BME280;40363;52.270;10.546;2023-01-31T04:57:48;77895.41;;;-147.06;95.80
54453;BME280;40363;52.270;10.546;2023-01-31T05:00:15;77899.53;;;-147.06;95.82
54453;BME280;40363;52.270;10.546;2023-01-31T05:02:42;77895.41;;;-147.06;95.54
54453;BME280;40363;52.270;10.546;2023-01-31T05:05:09;77907.75;;;-147.06;95.45
54453;BME280;40363;52.270;10.546;2023-01-31T05:07:37;77903.63;;;-147.06;95.16
54453;BME280;40363;52.270;10.546;2023-01-31T05:10:04;77897.47;;;-147.06;94.99
54453;BME280;40363;52.270;10.546;2023-01-31T05:12:31;77905.69;;;-147.06;94.97
54453;BME280;40363;52.270;10.546;2023-01-31T05:14:59;77903.63;;;-147.06;95.08
54453;BME280;40363;52.270;10.546;2023-01-31T05:17:26;77909.81;;;-147.06;94.44
54453;BME280;40363;52.270;10.546;2023-01-31T05:19:54;77913.91;;;-147.06;94.26
54453;BME280;40363;52.270;10.546;2023-01-31T05:22:21;77911.88;;;-147.06;94.46
54453;BME280;40363;52.270;10.546;2023-01-31T05:24:48;77911.88;;;-147.06;94.01
54453;BME280;40363;52.270;10.546;2023-01-31T05:27:16;77903.63;;;-147.06;94.29
54453;BME280;40363;52.270;10.546;2023-01-31T05:29:43;77915.97;;;-147.06;94.48
54453;BME280;40363;52.270;10.546;2023-01-31T05:32:12;77899.53;;;-147.06;94.24
54453;BME280;40363;52.270;10.546;2023-01-31T05:34:39;77911.88;;;-147.06;94.55
54453;BME280;40363;52.270;10.546;2023-01-31T05:37:06;77909.81;;;-147.06;93.89
54453;BME280;40363;52.270;10.546;2023-01-31T05:39:32;77920.09;;;-147.06;94.35
54453;BME280;40363;52.270;10.546;2023-01-31T05:41:59;77909.81;;;-147.06;94.14
54453;BME280;40363;52.270;10.546;2023-01-31T05:44:26;77913.91;;;-147.06;94.14
54453;BME280;40363;52.270;10.546;2023-01-31T05:46:53;77911.88;;;-147.06;93.99
54453;BME280;40363;52.270;10.546;2023-01-31T05:49:21;77909.81;;;-147.06;93.87
54453;BME280;40363;52.270;10.546;2023-01-31T05:51:47;77915.97;;;-147.06;93.72
54453;BME280;40363;52.270;10.546;2023-01-31T05:54:14;77915.97;;;-147.06;93.59
54453;BME280;40363;52.270;10.546;2023-01-31T05:56:41;77907.75;;;-147.06;93.11
54453;BME280;40363;52.270;10.546;2023-01-31T05:59:07;77918.03;;;-147.06;93.39
54453;BME280;40363;52.270;10.546;2023-01-31T06:01:34;77911.88;;;-147.06;93.15
54453;BME280;40363;52.270;10.546;2023-01-31T06:04:01;77915.97;;;-147.06;92.91
54453;BME280;40363;52.270;10.546;2023-01-31T06:06:29;77915.97;;;-147.06;92.56
54453;BME280;40363;52.270;10.546;2023-01-31T06:08:55;77911.88;;;-147.06;92.17
54453;BME280;40363;52.270;10.546;2023-01-31T06:11:22;77903.63;;;-147.06;91.72
54453;BME280;40363;52.270;10.546;2023-01-31T06:13:49;77911.88;;;-147.06;91.82
54453;BME280;40363;52.270;10.546;2023-01-31T06:16:16;77909.81;;;-147.06;91.86
54453;BME280;40363;52.270;10.546;2023-01-31T06:18:43;77911.88;;;-147.06;91.80
54453;BME280;40363;52.270;10.546;2023-01-31T06:21:09;77903.63;;;-147.06;91.95
54453;BME280;40363;52.270;10.546;2023-01-31T06:23:37;77918.03;;;-147.06;91.77
54453;BME280;40363;52.270;10.546;2023-01-31T06:26:04;77899.53;;;-147.06;91.78
54453;BME280;40363;52.270;10.546;2023-01-31T06:28:31;77895.41;;;-147.06;91.58
54453;BME280;40363;52.270;10.546;2023-01-31T06:30:58;77887.19;;;-147.06;91.68
54453;BME280;40363;52.270;10.546;2023-01-31T06:33:24;77893.34;;;-147.06;91.75
54453;BME280;40363;52.270;10.546;2023-01-31T06:35:51;77883.06;;;-147.06;91.79
54453;BME280;40363;52.270;10.546;2023-01-31T06:38:18;77881.03;;;-147.06;91.46
54453;BME280;40363;52.270;10.546;2023-01-31T06:40:46;77881.03;;;-147.06;91.44
54453;BME280;40363;52.270;10.546;2023-01-31T06:43:13;77870.75;;;-147.06;91.44
54453;BME280;40363;52.270;10.546;2023-01-31T06:45:41;77874.84;;;-147.06;91.54
54453;BME280;40363;52.270;10.546;2023-01-31T06:48:09;77866.63;;;-147.06;91.27
54453;BME280;40363;52.270;10.546;2023-01-31T06:50:35;77864.56;;;-147.06;91.29
54453;BME280;40363;52.270;10.546;2023-01-31T06:53:02;77870.75;;;-147.06;91.40
54453;BME280;40363;52.270;10.546;2023-01-31T06:55:29;77846.06;;;-147.06;91.26
54453;BME280;40363;52.270;10.546;2023-01-31T06:57:57;77833.72;;;-147.06;91.24
54453;BME280;40363;52.270;10.546;2023-01-31T07:00:24;77833.72;;;-147.06;91.20
54453;BME280;40363;52.270;10.546;2023-01-31T07:02:52;77821.41;;;-147.06;90.77
54453;BME280;40363;52.270;10.546;2023-01-31T07:05:20;77809.06;;;-147.06;90.43
54453;BME280;40363;52.270;10.546;2023-01-31T07:07:47;77821.41;;;-147.06;90.52
54453;BME280;40363;52.270;10.546;2023-01-31T07:10:14;77813.16;;;-147.06;90.61
54453;BME280;40363;52.270;10.546;2023-01-31T07:12:41;77804.94;;;-147.06;90.59
54453;BME280;40363;52.270;10.546;2023-01-31T07:15:10;77796.72;;;-147.06;90.39
54453;BME280;40363;52.270;10.546;2023-01-31T07:17:37;77792.63;;;-147.06;90.09
54453;BME280;40363;52.270;10.546;2023-01-31T07:20:05;77776.16;;;-147.06;89.97
54453;BME280;40363;52.270;10.546;2023-01-31T07:22:32;77780.28;;;-147.06;89.88
54453;BME280;40363;52.270;10.546;2023-01-31T07:24:59;77774.09;;;-147.06;90.03
54453;BME280;40363;52.270;10.546;2023-01-31T07:27:26;77763.81;;;-147.06;89.40
54453;BME280;40363;52.270;10.546;2023-01-31T07:29:53;77772.06;;;-147.06;89.50
54453;BME280;40363;52.270;10.546;2023-01-31T07:32:21;77751.50;;;-147.06;89.37
54453;BME280;40363;52.270;10.546;2023-01-31T07:34:48;77749.44;;;-147.06;89.09
54453;BME280;40363;52.270;10.546;2023-01-31T07:37:15;77737.09;;;-147.06;88.81
54453;BME280;40363;52.270;10.546;2023-01-31T07:39:42;77730.94;;;-147.06;88.72
54453;BME280;40363;52.270;10.546;2023-01-31T07:42:09;77724.75;;;-147.06;88.57
54453;BME280;40363;52.270;10.546;2023-01-31T07:44:35;77724.75;;;-147.06;88.83
54453;BME280;40363;52.270;10.546;2023-01-31T07:47:02;77714.47;;;-147.06;89.18
54453;BME280;40363;52.270;10.546;2023-01-31T07:49:30;77704.19;;;-147.06;88.79
54453;BME280;40363;52.270;10.546;2023-01-31T07:51:57;77698.03;;;-147.06;89.00
54453;BME280;40363;52.270;10.546;2023-01-31T07:54:24;77700.09;;;-147.06;88.61
54453;BME280;40363;52.270;10.546;2023-01-31T07:56:51;77687.75;;;-147.06;88.51
54453;BME280;40363;52.270;10.546;2023-01-31T07:59:17;77677.47;;;-147.06;88.96
54453;BME280;40363;52.270;10.546;2023-01-31T08:01:44;77675.41;;;-147.06;88.81
54453;BME280;40363;52.270;10.546;2023-01-31T08:04:28;77661.03;;;-147.06;89.05
54453;BME280;40363;52.270;10.546;2023-01-31T08:06:56;77665.13;;;-147.06;89.30
54453;BME280;40363;52.270;10.546;2023-01-31T08:09:27;77652.81;;;-147.06;89.12
54453;BME280;40363;52.270;10.546;2023-01-31T08:11:55;77650.75;;;-147.06;88.85
54453;BME280;40363;52.270;10.546;2023-01-31T08:14:21;77640.47;;;-147.06;88.86
54453;BME280;40363;52.270;10.546;2023-01-31T08:16:49;77632.25;;;-147.06;88.43
54453;BME280;40363;52.270;10.546;2023-01-31T08:19:17;77634.31;;;-147.06;88.52
54453;BME280;40363;52.270;10.546;2023-01-31T08:21:44;77628.13;;;-147.06;88.78
54453;BME280;40363;52.270;10.546;2023-01-31T08:24:12;77628.13;;;-147.06;88.62
54453;BME280;40363;52.270;10.546;2023-01-31T08:26:40;77626.06;;;-147.06;88.19
54453;BME280;40363;52.270;10.546;2023-01-31T08:29:07;77603.47;;;-147.06;87.91
54453;BME280;40363;52.270;10.546;2023-01-31T08:31:34;77591.13;;;-147.06;87.54
54453;BME280;40363;52.270;10.546;2023-01-31T08:34:00;77580.84;;;-147.06;87.53
54453;BME280;40363;52.270;10.546;2023-01-31T08:36:29;77570.56;;;-147.06;87.49
54453;BME280;40363;52.270;10.546;2023-01-31T08:38:57;77570.56;;;-147.06;86.88
54453;BME280;40363;52.270;10.546;2023-01-31T08:41:26;77568.50;;;-147.06;86.87
54453;BME280;40363;52.270;10.546;2023-01-31T08:43:53;77566.44;;;-147.06;86.66
54453;BME280;40363;52.270;10.546;2023-01-31T08:46:22;77550.00;;;-147.06;85.74
54453;BME280;40363;52.270;10.546;2023-01-31T08:48:49;77525.34;;;-147.06;85.44
54453;BME280;40363;52.270;10.546;2023-01-31T08:51:16;77521.22;;;-147.06;85.33
54453;BME280;40363;52.270;10.546;2023-01-31T08:53:43;77513.00;;;-147.06;84.79
54453;BME280;40363;52.270;10.546;2023-01-31T08:56:12;77500.66;;;-147.06;84.40
54453;BME280;40363;52.270;10.546;2023-01-31T08:58:41;77471.88;;;-147.06;83.35
54453;BME280;40363;52.270;10.546;2023-01-31T09:01:10;77377.31;;;-147.06;80.77
54453;BME280;40363;52.270;10.546;2023-01-31T09:03:37;77297.13;;;-147.06;78.00
54453;BME280;40363;52.270;10.546;2023-01-31T09:06:06;77311.53;;;-147.06;77.85
54453;BME280;40363;52.270;10.546;2023-01-31T09:08:33;77354.69;;;-147.06;79.35
54453;BME280;40363;52.270;10.546;2023-01-31T09:11:00;77334.13;;;-147.06;78.80
54453;BME280;40363;52.270;10.546;2023-01-31T09:13:28;77344.41;;;-147.06;79.11
54453;BME280;40363;52.270;10.546;2023-01-31T09:16:00;77367.03;;;-147.06;79.70
54453;BME280;40363;52.270;10.546;2023-01-31T09:18:27;77367.03;;;-147.06;79.82
54453;BME280;40363;52.270;10.546;2023-01-31T09:20:54;77377.31;;;-147.06;80.11
54453;BME280;40363;52.270;10.546;2023-01-31T09:23:21;77381.44;;;-147.06;79.97
54453;BME280;40363;52.270;10.546;2023-01-31T09:25:52;77369.09;;;-147.06;79.59
54453;BME280;40363;52.270;10.546;2023-01-31T09:28:19;77348.53;;;-147.06;78.82
54453;BME280;40363;52.270;10.546;2023-01-31T09:30:46;77348.53;;;-147.06;79.23
54453;BME280;40363;52.270;10.546;2023-01-31T09:33:14;77344.41;;;-147.06;79.38
54453;BME280;40363;52.270;10.546;2023-01-31T09:35:41;77352.66;;;-147.06;79.72
54453;BME280;40363;52.270;10.546;2023-01-31T09:38:07;77334.13;;;-147.06;79.17
54453;BME280;40363;52.270;10.546;2023-01-31T09:40:37;77344.41;;;-147.06;79.03
54453;BME280;40363;52.270;10.546;2023-01-31T09:43:07;77360.88;;;-147.06;79.69
54453;BME280;40363;52.270;10.546;2023-01-31T09:45:38;77364.97;;;-147.06;80.00
54453;BME280;40363;52.270;10.546;2023-01-31T09:48:09;77369.09;;;-147.06;80.21
54453;BME280;40363;52.270;10.546;2023-01-31T09:50:45;77377.31;;;-147.06;80.35
54453;BME280;40363;52.270;10.546;2023-01-31T09:53:15;77375.25;;;-147.06;80.49
54453;BME280;40363;52.270;10.546;2023-01-31T09:55:55;77371.16;;;-147.06;80.58
54453;BME280;40363;52.270;10.546;2023-01-31T09:58:30;77360.88;;;-147.06;80.43
54453;BME280;40363;52.270;10.546;2023-01-31T10:01:05;77350.59;;;-147.06;80.10
54453;BME280;40363;52.270;10.546;2023-01-31T10:03:42;77356.75;;;-147.06;80.19
54453;BME280;40363;52.270;10.546;2023-01-31T10:06:18;77356.75;;;-147.06;79.82
54453;BME280;40363;52.270;10.546;2023-01-31T10:08:50;77348.53;;;-147.06;79.73
54453;BME280;40363;52.270;10.546;2023-01-31T10:11:27;77360.88;;;-147.06;79.63
54453;BME280;40363;52.270;10.546;2023-01-31T10:13:59;77358.81;;;-147.06;80.26
54453;BME280;40363;52.270;10.546;2023-01-31T10:16:30;77346.47;;;-147.06;81.37
54453;BME280;40363;52.270;10.546;2023-01-31T10:19:02;77362.91;;;-147.06;82.52
54453;BME280;40363;52.270;10.546;2023-01-31T10:21:34;77352.66;;;-147.06;83.79
54453;BME280;40363;52.270;10.546;2023-01-31T10:24:10;77383.47;;;-147.06;85.76
54453;BME280;40363;52.270;10.546;2023-01-31T10:26:41;77416.38;;;-147.06;87.97
54453;BME280;40363;52.270;10.546;2023-01-31T10:29:14;77430.75;;;-147.06;89.88
54453;BME280;40363;52.270;10.546;2023-01-31T10:31:45;77432.81;;;-147.06;91.71
54453;BME280;40363;52.270;10.546;2023-01-31T10:34:18;77459.53;;;-147.06;92.98
54453;BME280;40363;52.270;10.546;2023-01-31T10:36:54;77459.53;;;-147.06;94.26
54453;BME280;40363;52.270;10.546;2023-01-31T10:39:22;77461.59;;;-147.06;94.80
54453;BME280;40363;52.270;10.546;2023-01-31T10:42:10;77478.06;;;-147.06;95.06
54453;BME280;40363;52.270;10.546;2023-01-31T10:44:43;77467.78;;;-147.06;95.22
54453;BME280;40363;52.270;10.546;2023-01-31T10:47:13;77459.53;;;-147.06;95.12
54453;BME280;40363;52.270;10.546;2023-01-31T10:49:43;77455.44;;;-147.06;95.37
54453;BME280;40363;52.270;10.546;2023-01-31T10:52:34;77457.50;;;-147.06;94.68
54453;BME280;40363;52.270;10.546;2023-01-31T10:55:28;77432.81;;;-147.06;94.26
54453;BME280;40363;52.270;10.546;2023-01-31T10:57:57;77445.16;;;-147.06;94.44
54453;BME280;40363;52.270;10.546;2023-01-31T11:00:27;77430.75;;;-147.06;94.22
54453;BME280;40363;52.270;10.546;2023-01-31T11:02:56;77428.72;;;-147.06;94.08
54453;BME280;40363;52.270;10.546;2023-01-31T11:05:24;77410.22;;;-147.06;93.78
54453;BME280;40363;52.270;10.546;2023-01-31T11:07:55;77410.22;;;-147.06;93.52
54453;BME280;40363;52.270;10.546;2023-01-31T11:10:24;77408.16;;;-147.06;92.97
54453;BME280;40363;52.270;10.546;2023-01-31T11:12:54;77395.81;;;-147.06;92.54
54453;BME280;40363;52.270;10.546;2023-01-31T11:15:23;77393.75;;;-147.06;92.91
54453;BME280;40363;52.270;10.546;2023-01-31T11:17:51;77375.25;;;-147.06;92.77
54453;BME280;40363;52.270;10.546;2023-01-31T11:20:24;77373.19;;;-147.06;92.50
54453;BME280;40363;52.270;10.546;2023-01-31T11:22:57;77364.97;;;-147.06;92.48
54453;BME280;40363;52.270;10.546;2023-01-31T11:25:26;77356.75;;;-147.06;92.27
54453;BME280;40363;52.270;10.546;2023-01-31T11:27:56;77344.41;;;-147.06;92.36
54453;BME280;40363;52.270;10.546;2023-01-31T11:30:27;77340.31;;;-147.06;92.25
54453;BME280;40363;52.270;10.546;2023-01-31T11:32:55;77327.97;;;-147.06;92.14
54453;BME280;40363;52.270;10.546;2023-01-31T11:35:26;77319.75;;;-147.06;91.89
54453;BME280;40363;52.270;10.546;2023-01-31T11:37:56;77317.69;;;-147.06;91.91
54453;BME280;40363;52.270;10.546;2023-01-31T11:40:28;77309.47;;;-147.06;91.64
54453;BME280;40363;52.270;10.546;2023-01-31T11:42:57;77305.34;;;-147.06;91.30
54453;BME280;40363;52.270;10.546;2023-01-31T11:45:26;77321.81;;;-147.06;91.04
54453;BME280;40363;52.270;10.546;2023-01-31T11:47:56;77313.59;;;-147.06;91.22
54453;BME280;40363;52.270;10.546;2023-01-31T11:50:26;77295.06;;;-147.06;90.95
54453;BME280;40363;52.270;10.546;2023-01-31T11:52:59;77303.31;;;-147.06;90.59
54453;BME280;40363;52.270;10.546;2023-01-31T11:55:34;77295.06;;;-147.06;90.37
54453;BME280;40363;52.270;10.546;2023-01-31T11:58:04;77282.75;;;-147.06;90.34
54453;BME280;40363;52.270;10.546;2023-01-31T12:00:35;77284.81;;;-147.06;91.40
54453;BME280;40363;52.270;10.546;2023-01-31T12:03:03;77282.75;;;-147.06;91.53
54453;BME280;40363;52.270;10.546;2023-01-31T12:05:35;77284.81;;;-147.06;92.30
54453;BME280;40363;52.270;10.546;2023-01-31T12:08:05;77274.53;;;-147.06;92.29
54453;BME280;40363;52.270;10.546;2023-01-31T12:10:40;77270.41;;;-147.06;92.39
54453;BME280;40363;52.270;10.546;2023-01-31T12:13:17;77274.53;;;-147.06;93.07
54453;BME280;40363;52.270;10.546;2023-01-31T12:15:47;77256.03;;;-147.06;93.64
54453;BME280;40363;52.270;10.546;2023-01-31T12:18:22;77256.03;;;-147.06;93.68
54453;BME280;40363;52.270;10.546;2023-01-31T12:21:00;77256.03;;;-147.06;94.67
54453;BME280;40363;52.270;10.546;2023-01-31T12:23:38;77260.13;;;-147.06;95.06
54453;BME280;40363;52.270;10.546;2023-01-31T12:26:09;77262.19;;;-147.06;95.11
54453;BME280;40363;52.270;10.546;2023-01-31T12:28:49;77253.97;;;-147.06;95.46
54453;BME280;40363;52.270;10.546;2023-01-31T12:31:44;77249.84;;;-147.06;95.70
54453;BME280;40363;52.270;10.546;2023-01-31T12:34:22;77245.75;;;-147.06;95.79
54453;BME280;40363;52.270;10.546;2023-01-31T12:37:05;77233.41;;;-147.06;95.07
54453;BME280;40363;52.270;10.546;2023-01-31T12:39:53;77233.41;;;-147.06;95.41
54453;BME280;40363;52.270;10.546;2023-01-31T12:42:40;77233.41;;;-147.06;95.22
54453;BME280;40363;52.270;10.546;2023-01-31T12:45:24;77245.75;;;-147.06;94.99
54453;BME280;40363;52.270;10.546;2023-01-31T12:48:12;77239.56;;;-147.06;95.54
54453;BME280;40363;52.270;10.546;2023-01-31T12:50:47;77241.63;;;-147.06;95.83
54453;BME280;40363;52.270;10.546;2023-01-31T12:56:26;77235.47;;;-147.06;96.40